createdAt,value
2022-11-10T00:00:20.847Z,12.59
2022-11-10T00:05:41.129Z,12.58
2022-11-10T00:11:06.734Z,12.63
2022-11-10T00:16:45.480Z,12.66
2022-11-10T00:22:05.436Z,12.64
2022-11-10T00:27:25.468Z,12.65
2022-11-10T00:32:47.023Z,12.63
2022-11-10T00:38:07.344Z,12.58
2022-11-10T00:43:28.841Z,12.55
2022-11-10T00:48:49.277Z,12.53
2022-11-10T00:54:09.115Z,12.54
2022-11-10T00:59:29.018Z,12.54
2022-11-10T01:04:48.901Z,12.52
2022-11-10T01:10:09.283Z,12.47
2022-11-10T01:15:29.253Z,12.44
2022-11-10T01:20:52.613Z,12.39
2022-11-10T01:26:14.057Z,12.32
2022-11-10T01:31:33.908Z,12.21
2022-11-10T01:36:53.798Z,12.13
2022-11-10T01:42:14.474Z,12.14
2022-11-10T01:47:34.776Z,12.14
2022-11-10T01:52:58.923Z,12.10
2022-11-10T01:58:23.339Z,12.04
2022-11-10T02:03:49.362Z,11.99
2022-11-10T02:09:09.584Z,11.96
2022-11-10T02:14:29.871Z,11.92
2022-11-10T02:19:51.503Z,11.89
2022-11-10T02:25:15.937Z,11.86
2022-11-10T02:30:35.869Z,11.83
2022-11-10T02:35:56.098Z,11.79
2022-11-10T02:41:16.056Z,11.74
2022-11-10T02:46:37.420Z,11.69
2022-11-10T02:51:57.438Z,11.63
2022-11-10T02:57:17.362Z,11.56
2022-11-10T03:02:37.413Z,11.54
2022-11-10T03:07:59.980Z,11.47
2022-11-10T03:13:20.298Z,11.42
2022-11-10T03:18:40.681Z,11.39
2022-11-10T03:24:00.871Z,11.41
2022-11-10T03:29:20.609Z,11.45
2022-11-10T03:34:40.611Z,11.45
2022-11-10T03:40:02.118Z,11.43
2022-11-10T03:45:22.400Z,11.43
2022-11-10T03:50:42.372Z,11.39
2022-11-10T03:56:06.151Z,11.35
2022-11-10T04:01:26.166Z,11.30
2022-11-10T04:07:04.923Z,11.23
2022-11-10T04:12:43.914Z,11.16
2022-11-10T04:18:24.572Z,11.09
2022-11-10T04:23:44.386Z,11.06
2022-11-10T04:29:09.490Z,11.03
2022-11-10T04:34:29.720Z,10.92
2022-11-10T04:39:49.629Z,10.88
2022-11-10T04:45:09.821Z,10.87
2022-11-10T04:50:30.118Z,10.87
2022-11-10T04:55:50.173Z,10.85
2022-11-10T05:01:15.777Z,10.87
2022-11-10T05:06:36.118Z,10.90
2022-11-10T05:11:55.991Z,10.98
2022-11-10T05:17:15.994Z,11.00
2022-11-10T05:22:35.808Z,11.01
2022-11-10T05:27:55.725Z,11.08
2022-11-10T05:33:15.576Z,11.15
2022-11-10T05:38:41.913Z,11.10
2022-11-10T05:44:03.476Z,10.98
2022-11-10T05:49:23.325Z,10.88
2022-11-10T05:54:43.283Z,10.79
2022-11-10T06:00:05.400Z,10.74
2022-11-10T06:05:30.837Z,10.70
2022-11-10T06:10:50.900Z,10.60
2022-11-10T06:16:11.166Z,10.51
2022-11-10T06:21:31.165Z,10.49
2022-11-10T06:26:51.096Z,10.46
2022-11-10T06:32:11.795Z,10.43
2022-11-10T06:37:32.039Z,10.45
2022-11-10T06:42:51.986Z,10.56
2022-11-10T06:48:16.456Z,10.69
2022-11-10T06:53:36.366Z,10.81
2022-11-10T06:58:56.171Z,10.92
2022-11-10T07:04:20.658Z,11.05
2022-11-10T07:09:41.993Z,11.19
2022-11-10T07:15:02.171Z,11.28
2022-11-10T07:20:22.890Z,11.32
2022-11-10T07:25:42.643Z,11.41
2022-11-10T07:31:03.136Z,11.50
2022-11-10T07:36:23.467Z,11.59
2022-11-10T07:41:43.418Z,11.69
2022-11-10T07:47:03.425Z,11.75
2022-11-10T07:52:23.319Z,11.79
2022-11-10T07:57:43.285Z,11.85
2022-11-10T08:03:05.904Z,11.93
2022-11-10T08:08:25.997Z,11.99
2022-11-10T08:13:46.044Z,12.09
2022-11-10T08:19:05.908Z,12.14
2022-11-10T08:24:25.819Z,12.15
2022-11-10T08:29:45.676Z,12.14
2022-11-10T08:35:06.054Z,12.20
2022-11-10T08:40:28.943Z,12.18
2022-11-10T08:45:49.176Z,12.22
2022-11-10T08:51:09.223Z,12.26
2022-11-10T08:56:29.300Z,12.33
2022-11-10T09:01:51.391Z,12.47
2022-11-10T09:07:11.650Z,12.58
2022-11-10T09:12:31.513Z,12.65
2022-11-10T09:17:51.685Z,12.61
2022-11-10T09:23:16.617Z,12.47
2022-11-10T09:28:36.673Z,12.37
2022-11-10T09:33:56.704Z,12.42
2022-11-10T09:39:16.643Z,12.52
2022-11-10T09:44:46.576Z,12.60
2022-11-10T09:50:07.402Z,12.70
2022-11-10T09:55:40.890Z,12.69
2022-11-10T10:01:19.931Z,12.80
2022-11-10T10:07:10.295Z,12.99
2022-11-10T10:12:43.804Z,13.07
2022-11-10T10:18:23.744Z,13.15
2022-11-10T10:24:09.525Z,13.23
2022-11-10T10:29:39.457Z,13.12
2022-11-10T10:34:59.585Z,13.04
2022-11-10T10:40:22.892Z,12.98
2022-11-10T10:45:42.860Z,13.04
2022-11-10T10:51:04.659Z,13.16
2022-11-10T10:56:33.138Z,13.25
2022-11-10T11:01:55.167Z,13.31
2022-11-10T11:07:24.461Z,13.44
2022-11-10T11:12:44.585Z,13.49
2022-11-10T11:18:12.956Z,13.62
2022-11-10T11:24:03.582Z,13.64
2022-11-10T11:29:54.917Z,13.93
2022-11-10T11:35:41.337Z,13.91
2022-11-10T11:41:19.570Z,13.91
2022-11-10T11:46:55.402Z,14.05
2022-11-10T11:52:36.084Z,14.24
2022-11-10T11:58:16.038Z,14.28
2022-11-10T12:03:57.225Z,14.31
2022-11-10T12:09:28.716Z,14.33
2022-11-10T12:15:26.821Z,14.49
2022-11-10T12:21:22.023Z,14.40
2022-11-10T12:27:11.376Z,14.33
2022-11-10T12:32:47.258Z,14.30
2022-11-10T12:38:14.124Z,14.29
2022-11-10T12:43:57.200Z,14.19
2022-11-10T12:49:23.992Z,14.38
2022-11-10T12:54:46.267Z,14.62
2022-11-10T13:00:08.232Z,14.65
2022-11-10T13:05:41.831Z,15.01
2022-11-10T13:11:11.153Z,15.60
2022-11-10T13:16:40.437Z,15.86
2022-11-10T13:22:00.916Z,15.42
2022-11-10T13:27:33.004Z,14.86
2022-11-10T13:32:52.967Z,14.49
2022-11-10T13:38:31.663Z,14.27
2022-11-10T13:43:56.361Z,14.16
2022-11-10T13:49:28.213Z,14.21
2022-11-10T13:55:04.006Z,14.19
2022-11-10T14:00:28.439Z,14.04
2022-11-10T14:05:57.283Z,13.90
2022-11-10T14:11:22.287Z,13.70
2022-11-10T14:16:43.817Z,13.62
2022-11-10T14:22:42.644Z,13.60
2022-11-10T14:28:17.299Z,13.60
2022-11-10T14:33:37.204Z,13.57
2022-11-10T14:38:58.080Z,13.51
2022-11-10T14:44:27.064Z,13.48
2022-11-10T14:49:46.912Z,13.45
2022-11-10T14:55:20.301Z,13.42
2022-11-10T15:00:41.960Z,13.34
2022-11-10T15:06:04.147Z,13.30
2022-11-10T15:11:41.044Z,13.20
2022-11-10T15:17:06.684Z,13.00
2022-11-10T15:22:36.537Z,12.85
2022-11-10T15:27:58.259Z,12.75
2022-11-10T15:33:26.836Z,12.67
2022-11-10T15:39:03.935Z,12.59
2022-11-10T15:44:25.936Z,12.49
2022-11-10T15:49:46.750Z,12.39
2022-11-10T15:55:19.965Z,12.30
2022-11-10T16:00:39.879Z,12.23
2022-11-10T16:05:59.960Z,12.15
2022-11-10T16:11:21.433Z,12.04
2022-11-10T16:16:42.029Z,11.89
2022-11-10T16:22:02.353Z,11.75
2022-11-10T16:27:22.571Z,11.73
2022-11-10T16:32:42.500Z,11.69
2022-11-10T16:38:03.029Z,11.64
2022-11-10T16:43:23.550Z,11.61
2022-11-10T16:48:45.732Z,11.53
2022-11-10T16:54:05.923Z,11.51
2022-11-10T16:59:25.753Z,11.49
2022-11-10T17:04:45.727Z,11.36
2022-11-10T17:10:06.676Z,11.25
2022-11-10T17:15:26.660Z,11.16
2022-11-10T17:20:49.677Z,11.06
2022-11-10T17:26:12.746Z,11.03
2022-11-10T17:31:33.834Z,11.10
2022-11-10T17:36:54.001Z,11.12
2022-11-10T17:42:14.283Z,11.10
2022-11-10T17:47:34.078Z,11.05
2022-11-10T17:52:54.429Z,11.01
2022-11-10T17:58:15.618Z,10.98
2022-11-10T18:03:35.707Z,10.95
2022-11-10T18:08:55.677Z,10.94
2022-11-10T18:14:15.551Z,10.87
2022-11-10T18:19:35.616Z,10.80
2022-11-10T18:24:55.750Z,10.77
2022-11-10T18:30:16.902Z,10.73
2022-11-10T18:35:39.004Z,10.75
2022-11-10T18:41:23.976Z,10.76
2022-11-10T18:46:45.036Z,10.77
2022-11-10T18:52:05.195Z,10.75
2022-11-10T18:57:25.255Z,10.73
2022-11-10T19:02:45.131Z,10.72
2022-11-10T19:08:07.946Z,10.69
2022-11-10T19:13:28.992Z,10.66
2022-11-10T19:18:49.884Z,10.61
2022-11-10T19:24:09.801Z,10.55
2022-11-10T19:29:29.767Z,10.51
2022-11-10T19:34:49.879Z,10.55
2022-11-10T19:40:10.434Z,10.59
2022-11-10T19:45:30.290Z,10.63
2022-11-10T19:50:57.699Z,10.68
2022-11-10T19:56:29.069Z,10.67
2022-11-10T20:01:51.602Z,10.55
2022-11-10T20:07:30.367Z,10.42
2022-11-10T20:12:50.594Z,10.38
2022-11-10T20:18:16.943Z,10.32
2022-11-10T20:23:37.431Z,10.34
2022-11-10T20:28:57.302Z,10.42
2022-11-10T20:34:17.208Z,10.46
2022-11-10T20:39:37.373Z,10.47
2022-11-10T20:44:58.459Z,10.49
2022-11-10T20:50:24.138Z,10.50
2022-11-10T20:55:53.652Z,10.49
2022-11-10T21:01:15.545Z,10.47
2022-11-10T21:06:35.751Z,10.43
2022-11-10T21:12:14.337Z,10.39
2022-11-10T21:17:34.583Z,10.27
2022-11-10T21:23:02.056Z,10.13
2022-11-10T21:28:24.057Z,10.10
2022-11-10T21:33:44.401Z,10.17
2022-11-10T21:39:05.133Z,10.22
2022-11-10T21:44:25.152Z,10.27
2022-11-10T21:49:45.426Z,10.23
2022-11-10T21:55:06.378Z,10.17
2022-11-10T22:00:27.571Z,10.10
2022-11-10T22:05:48.231Z,10.02
2022-11-10T22:11:34.696Z,10.01
2022-11-10T22:17:13.273Z,9.95
2022-11-10T22:22:33.392Z,9.87
2022-11-10T22:27:53.459Z,9.81
2022-11-10T22:33:28.581Z,9.76
2022-11-10T22:38:49.620Z,9.75
2022-11-10T22:44:11.957Z,9.74
2022-11-10T22:49:32.173Z,9.77
2022-11-10T22:54:52.116Z,9.85
2022-11-10T23:00:12.838Z,9.91
2022-11-10T23:05:36.663Z,9.92
2022-11-10T23:11:01.844Z,9.90
2022-11-10T23:16:30.471Z,9.83
2022-11-10T23:21:50.404Z,9.76
2022-11-10T23:27:10.175Z,9.71
2022-11-10T23:32:30.138Z,9.64
2022-11-10T23:37:49.914Z,9.59
2022-11-10T23:43:09.917Z,9.60
2022-11-10T23:48:29.787Z,9.67
2022-11-10T23:53:49.786Z,9.71
2022-11-10T23:59:09.631Z,9.73
